Time;durP1;ratioP1;P1;durP2;ratioP2;P2;SDS_P1;SDS_P2;PMS_P1;PMS_P2;Temp;Humidity;BMP_temperature;BMP_pressure;BME280_temperature;BME280_humidity;BME280_pressure;Samples;Min_cycle;Max_cycle;Signal;HPM_P1;HPM_P2
2022/07/03 00:02:00;;;;;;;14.40;7.30;;;;;;;11.98;91.17;100703.97;105032;1271;71807;-70
2022/07/03 00:04:48;;;;;;;14.30;7.60;;;;;;;11.94;91.22;100710.30;105121;1271;59778;-71
2022/07/03 00:07:39;;;;;;;13.90;7.50;;;;;;;11.91;91.32;100709.77;104999;1274;60367;-70
2022/07/03 00:10:26;;;;;;;11.80;7.20;;;;;;;11.88;91.45;100710.88;104936;1273;73943;-70
2022/07/03 00:13:14;;;;;;;13.80;7.60;;;;;;;11.86;91.39;100706.10;105237;1274;69928;-68
2022/07/03 00:16:03;;;;;;;17.40;9.70;;;;;;;11.84;91.27;100703.23;104990;1274;73351;-70
2022/07/03 00:18:51;;;;;;;15.80;7.30;;;;;;;11.82;91.26;100698.54;105089;1273;59798;-71
2022/07/03 00:21:55;;;;;;;14.00;7.40;;;;;;;11.81;91.63;100698.09;104969;1273;60007;-71
2022/07/03 00:25:02;;;;;;;12.20;6.90;;;;;;;11.79;91.59;100697.67;104866;1274;73902;-71
2022/07/03 00:27:50;;;;;;;13.30;7.30;;;;;;;11.78;92.02;100699.35;104828;1273;67394;-70
2022/07/03 00:30:37;;;;;;;16.10;7.60;;;;;;;11.77;91.54;100698.73;104893;1272;74886;-69
2022/07/03 00:33:29;;;;;;;18.20;8.40;;;;;;;11.75;91.78;100697.11;104892;1273;60018;-72
2022/07/03 00:36:17;;;;;;;15.50;8.50;;;;;;;11.72;91.69;100699.94;104974;1274;59719;-70
2022/07/03 00:39:06;;;;;;;15.00;8.00;;;;;;;11.69;91.60;100700.55;104951;1273;73511;-68
2022/07/03 00:42:02;;;;;;;13.80;7.80;;;;;;;11.64;92.09;100697.73;104976;1273;67192;-72
2022/07/03 00:44:57;;;;;;;14.90;7.40;;;;;;;11.59;92.82;100696.11;104839;1274;73310;-69
2022/07/03 00:47:45;;;;;;;15.90;8.10;;;;;;;11.55;92.96;100693.20;104810;1274;59882;-70
2022/07/03 00:50:36;;;;;;;17.10;8.10;;;;;;;11.53;92.75;100691.93;105340;1273;61579;-67
2022/07/03 00:53:32;;;;;;;14.00;7.30;;;;;;;11.50;92.46;100689.28;105150;1273;73470;-66
2022/07/03 00:56:26;;;;;;;13.00;7.50;;;;;;;11.49;92.70;100688.13;105139;1272;69033;-67
2022/07/03 00:59:14;;;;;;;13.50;7.70;;;;;;;11.47;92.81;100685.58;104901;1273;74087;-70
2022/07/03 01:02:05;;;;;;;12.70;7.00;;;;;;;11.44;93.04;100684.73;104877;1273;61708;-70
2022/07/03 01:05:26;;;;;;;12.60;6.70;;;;;;;11.40;92.66;100683.95;104978;1272;60229;-69
2022/07/03 01:08:24;;;;;;;11.70;6.40;;;;;;;11.36;93.29;100684.92;105220;1273;73784;-70
2022/07/03 01:11:30;;;;;;;14.50;6.50;;;;;;;11.35;93.57;100681.80;105187;1273;68827;-69
2022/07/03 01:14:29;;;;;;;13.30;6.90;;;;;;;11.33;93.20;100682.86;104960;1273;73460;-70
2022/07/03 01:17:39;;;;;;;12.60;6.80;;;;;;;11.30;93.15;100680.92;105135;1273;59760;-71
2022/07/03 01:20:30;;;;;;;11.90;6.60;;;;;;;11.27;93.73;100676.56;105108;1273;61949;-71
2022/07/03 01:23:57;;;;;;;15.10;7.40;;;;;;;11.24;93.87;100674.04;104979;1274;72762;-72
2022/07/03 01:27:06;;;;;;;13.60;6.80;;;;;;;11.21;93.91;100673.02;105038;1275;68678;-72
2022/07/03 01:30:12;;;;;;;10.80;6.20;;;;;;;11.19;94.62;100674.20;105173;1273;72230;-69
2022/07/03 01:33:06;;;;;;;12.40;6.70;;;;;;;11.17;94.27;100671.70;104921;1273;59857;-73
2022/07/03 01:36:00;;;;;;;14.30;7.30;;;;;;;11.17;94.64;100670.99;105060;1274;60318;-69
2022/07/03 01:38:50;;;;;;;14.20;6.90;;;;;;;11.17;94.92;100672.42;104995;1273;73955;-66
2022/07/03 01:41:37;;;;;;;12.10;6.50;;;;;;;11.18;94.74;100668.45;104957;1273;66720;-71
2022/07/03 01:44:27;;;;;;;13.70;7.60;;;;;;;11.18;95.41;100663.48;104924;1273;73704;-72
2022/07/03 01:47:17;;;;;;;12.50;6.30;;;;;;;11.20;96.23;100662.95;104895;1273;59892;-71
2022/07/03 01:50:10;;;;;;;11.50;6.00;;;;;;;11.22;96.62;100662.79;104894;1273;60803;-70
2022/07/03 01:53:02;;;;;;;14.20;6.30;;;;;;;11.25;97.10;100662.23;105146;1273;71985;-70
2022/07/03 01:55:52;;;;;;;14.90;6.40;;;;;;;11.27;97.46;100654.84;104925;1273;67220;-73
2022/07/03 01:58:40;;;;;;;10.80;5.50;;;;;;;11.31;98.18;100654.36;104827;1274;73447;-71
2022/07/03 02:01:44;;;;;;;11.50;6.00;;;;;;;11.37;98.68;100652.92;104952;1273;59685;-71
2022/07/03 02:04:42;;;;;;;11.30;6.10;;;;;;;11.40;98.86;100644.33;104938;1273;61141;-72
2022/07/03 02:07:44;;;;;;;11.30;5.40;;;;;;;11.41;98.40;100646.73;105074;1272;73835;-71
2022/07/03 02:10:39;;;;;;;11.30;5.00;;;;;;;11.45;99.07;100640.10;105065;1271;69573;-70
2022/07/03 02:13:29;;;;;;;10.20;5.20;;;;;;;11.47;98.47;100645.79;105009;1272;72172;-70
2022/07/03 02:16:21;;;;;;;11.40;5.40;;;;;;;11.48;98.44;100642.19;105085;1271;59642;-71
2022/07/03 02:19:12;;;;;;;10.30;5.00;;;;;;;11.49;98.99;100644.06;104996;1273;59745;-70
2022/07/03 02:22:03;;;;;;;10.50;5.10;;;;;;;11.54;99.80;100646.38;105078;1271;74687;-69
2022/07/03 02:24:50;;;;;;;11.50;4.80;;;;;;;11.59;99.96;100643.14;104974;1273;69629;-71
2022/07/03 02:27:55;;;;;;;10.10;5.10;;;;;;;11.63;100.00;100639.84;104914;1271;73245;-70
2022/07/03 02:30:51;;;;;;;11.10;4.40;;;;;;;11.67;99.76;100641.68;105201;1271;59714;-71
2022/07/03 02:33:43;;;;;;;11.80;4.60;;;;;;;11.66;99.60;100643.88;104982;1271;60537;-70
2022/07/03 02:36:35;;;;;;;11.50;4.80;;;;;;;11.68;100.00;100641.09;104925;1271;73598;-71
2022/07/03 02:39:54;;;;;;;8.90;4.10;;;;;;;11.68;99.94;100643.38;105352;1271;68533;-72
2022/07/03 02:43:12;;;;;;;10.80;4.90;;;;;;;11.70;100.00;100642.17;105322;1271;73226;-71
2022/07/03 02:46:50;;;;;;;10.30;4.70;;;;;;;11.72;99.86;100640.98;105059;1271;59736;-69
2022/07/03 02:50:11;;;;;;;10.20;4.40;;;;;;;11.75;100.00;100642.52;105004;1272;61059;-70
2022/07/03 02:53:11;;;;;;;9.70;4.20;;;;;;;11.78;100.00;100642.49;105041;1271;72455;-69
2022/07/03 02:56:15;;;;;;;10.50;4.50;;;;;;;11.84;100.00;100642.98;105265;1271;66779;-69
2022/07/03 02:59:35;;;;;;;10.30;4.90;;;;;;;11.87;100.00;100640.55;105072;1271;72317;-69
2022/07/03 03:02:49;;;;;;;12.20;4.40;;;;;;;11.93;100.00;100631.09;105062;1271;59871;-70
2022/07/03 03:05:48;;;;;;;9.00;4.80;;;;;;;12.01;100.00;100631.91;105460;1271;60790;-69
2022/07/03 03:08:48;;;;;;;12.80;4.50;;;;;;;12.10;100.00;100628.08;105082;1271;73708;-69
2022/07/03 03:11:44;;;;;;;11.40;4.00;;;;;;;12.21;100.00;100630.25;104962;1272;69463;-68
2022/07/03 03:14:40;;;;;;;10.40;4.20;;;;;;;12.33;100.00;100634.16;104947;1271;73209;-69
2022/07/03 03:17:41;;;;;;;13.90;5.50;;;;;;;12.43;100.00;100633.78;105146;1271;59707;-69
2022/07/03 03:20:32;;;;;;;10.70;5.00;;;;;;;12.52;100.00;100628.27;105161;1271;62091;-71
2022/07/03 03:23:48;;;;;;;10.10;5.30;;;;;;;12.58;100.00;100628.16;104961;1271;74700;-72
2022/07/03 03:26:38;;;;;;;9.80;4.90;;;;;;;12.66;100.00;100628.59;105305;1271;67515;-72
2022/07/03 03:29:28;;;;;;;12.70;5.40;;;;;;;12.72;100.00;100623.15;105211;1271;73865;-71
2022/07/03 03:32:17;;;;;;;13.00;5.30;;;;;;;12.77;100.00;100618.81;105273;1271;59744;-74
2022/07/03 03:35:07;;;;;;;13.20;5.30;;;;;;;12.84;100.00;100617.94;105277;1271;60697;-72
2022/07/03 03:37:55;;;;;;;11.80;5.50;;;;;;;12.91;100.00;100614.23;105073;1274;73587;-71
2022/07/03 03:40:45;;;;;;;12.50;5.00;;;;;;;12.98;100.00;100612.60;105214;1271;66510;-66
2022/07/03 03:43:34;;;;;;;12.30;5.20;;;;;;;13.05;100.00;100615.73;104944;1271;71965;-71
2022/07/03 03:46:21;;;;;;;11.20;5.40;;;;;;;13.14;100.00;100613.11;104983;1271;59789;-70
2022/07/03 03:49:09;;;;;;;9.40;4.50;;;;;;;13.22;100.00;100614.99;105216;1274;60431;-69
2022/07/03 03:51:57;;;;;;;11.10;3.90;;;;;;;13.31;100.00;100610.37;105036;1272;74850;-69
2022/07/03 03:54:47;;;;;;;11.10;3.80;;;;;;;13.40;100.00;100608.36;105131;1271;68362;-70
2022/07/03 03:57:36;;;;;;;10.90;4.20;;;;;;;13.48;100.00;100605.78;105085;1271;74170;-71
2022/07/03 04:00:24;;;;;;;9.90;3.90;;;;;;;13.56;100.00;100602.29;105057;1271;59679;-69
2022/07/03 04:03:12;;;;;;;14.50;4.50;;;;;;;13.63;100.00;100598.89;105014;1271;60491;-70
2022/07/03 04:06:00;;;;;;;12.90;4.50;;;;;;;13.71;100.00;100596.61;104712;1273;72373;-71
2022/07/03 04:08:48;;;;;;;12.00;3.40;;;;;;;13.79;99.98;100596.13;105192;1271;69513;-70
2022/07/03 04:11:36;;;;;;;9.90;3.70;;;;;;;13.87;99.81;100595.05;105031;1271;73166;-72
2022/07/03 04:14:24;;;;;;;9.60;3.30;;;;;;;13.98;99.53;100592.38;105285;1271;59851;-72
2022/07/03 04:17:12;;;;;;;9.30;3.30;;;;;;;14.10;99.08;100590.13;104966;1271;59793;-70
2022/07/03 04:20:00;;;;;;;9.60;3.10;;;;;;;14.23;98.66;100594.07;104836;1271;73586;-71
2022/07/03 04:22:50;;;;;;;10.00;3.50;;;;;;;14.38;98.31;100598.16;104900;1272;68276;-69
2022/07/03 04:25:37;;;;;;;8.80;2.70;;;;;;;14.54;97.37;100596.79;104881;1271;72339;-69
2022/07/03 04:28:25;;;;;;;8.80;2.80;;;;;;;14.72;96.88;100600.45;104963;1271;61188;-70
2022/07/03 04:31:13;;;;;;;9.20;3.00;;;;;;;14.94;95.30;100601.25;104992;1271;59541;-73
2022/07/03 04:34:01;;;;;;;9.90;3.10;;;;;;;15.21;94.15;100594.95;105215;1271;74749;-72
2022/07/03 04:36:49;;;;;;;7.90;2.50;;;;;;;15.52;92.75;100594.14;104860;1273;67391;-70
2022/07/03 04:39:37;;;;;;;9.80;2.80;;;;;;;15.90;91.40;100591.43;104990;1271;73472;-69
2022/07/03 04:42:24;;;;;;;8.80;2.40;;;;;;;16.30;88.41;100587.91;104943;1271;59672;-71
2022/07/03 04:45:12;;;;;;;11.10;2.80;;;;;;;16.72;85.52;100590.59;105240;1271;60252;-69
2022/07/03 04:48:00;;;;;;;8.50;2.30;;;;;;;17.14;82.65;100590.37;105232;1271;72127;-73
2022/07/03 04:50:48;;;;;;;10.70;2.50;;;;;;;17.62;80.11;100589.09;104905;1271;68021;-70
2022/07/03 04:53:35;;;;;;;7.70;2.10;;;;;;;18.20;79.10;100588.02;105250;1271;71649;-70
2022/07/03 04:56:23;;;;;;;9.10;2.60;;;;;;;18.82;74.95;100588.52;105107;1271;59760;-73
2022/07/03 04:59:11;;;;;;;7.10;2.30;;;;;;;19.45;72.14;100592.02;104968;1271;61042;-70
2022/07/03 05:01:59;;;;;;;10.80;2.50;;;;;;;20.00;70.43;100588.77;104980;1271;74930;-69
2022/07/03 05:04:47;;;;;;;8.70;2.50;;;;;;;20.67;67.30;100583.23;104992;1271;69569;-72
2022/07/03 05:07:35;;;;;;;6.50;2.10;;;;;;;21.19;63.22;100585.79;104982;1271;73310;-73
2022/07/03 05:10:23;;;;;;;6.40;1.80;;;;;;;21.66;61.77;100583.54;104811;1273;59664;-72
2022/07/03 05:13:12;;;;;;;7.70;1.90;;;;;;;21.98;59.73;100583.41;105102;1271;62038;-71
2022/07/03 05:15:59;;;;;;;7.60;2.10;;;;;;;22.42;59.21;100582.86;105204;1271;73577;-71
2022/07/03 05:18:47;;;;;;;6.50;2.20;;;;;;;22.91;57.09;100576.31;105236;1271;69267;-72
2022/07/03 05:21:35;;;;;;;8.10;1.90;;;;;;;23.46;56.07;100582.29;105285;1271;294921;-70
2022/07/03 05:24:23;;;;;;;6.30;2.00;;;;;;;23.89;53.54;100578.20;105001;1271;59647;-74
2022/07/03 05:27:11;;;;;;;7.30;2.30;;;;;;;23.85;52.52;100576.60;105287;1273;60227;-74
2022/07/03 05:29:59;;;;;;;7.50;2.10;;;;;;;23.85;52.20;100572.02;105511;1271;71977;-68
2022/07/03 05:32:47;;;;;;;7.50;2.10;;;;;;;23.84;51.86;100573.03;104960;1271;66354;-70
2022/07/03 05:35:35;;;;;;;7.90;2.00;;;;;;;23.86;52.14;100568.70;104905;1271;72987;-71
2022/07/03 05:41:30;;;;;;;7.50;2.00;;;;;;;24.61;50.83;100563.77;105379;1271;60240;-72
2022/07/03 05:44:17;;;;;;;8.80;1.90;;;;;;;25.07;49.94;100558.16;105113;1271;74716;-72
2022/07/03 05:47:05;;;;;;;9.20;2.00;;;;;;;25.47;48.07;100559.77;105027;1274;69367;-73
2022/07/03 05:49:54;;;;;;;6.80;1.90;;;;;;;25.80;47.03;100559.70;105181;1271;72815;-72
2022/07/03 05:52:41;;;;;;;7.90;1.90;;;;;;;26.05;46.23;100559.00;105143;1271;59871;-72
2022/07/03 05:55:29;;;;;;;7.40;1.70;;;;;;;26.36;45.14;100559.93;105238;1272;60480;-73
2022/07/03 05:58:16;;;;;;;7.50;1.80;;;;;;;26.36;43.94;100558.55;105148;1271;73355;-71
2022/07/03 06:01:04;;;;;;;7.30;1.70;;;;;;;26.56;44.01;100557.73;105207;1271;68431;-72
2022/07/03 06:03:52;;;;;;;7.60;1.70;;;;;;;26.72;42.94;100559.01;105497;1271;74013;-74
2022/07/03 06:06:40;;;;;;;8.90;1.70;;;;;;;26.97;43.18;100551.58;105404;1271;59895;-73
2022/07/03 06:09:28;;;;;;;6.90;1.50;;;;;;;27.30;41.69;100551.50;105155;1271;62121;-74
2022/07/03 06:12:16;;;;;;;7.00;1.60;;;;;;;27.63;40.72;100551.98;105169;1272;71143;-73
2022/07/03 06:15:05;;;;;;;6.00;1.50;;;;;;;27.94;40.16;100553.70;105184;1271;66826;-73
2022/07/03 06:17:53;;;;;;;6.60;1.60;;;;;;;28.21;39.53;100549.13;105063;1271;74417;-70
2022/07/03 06:20:40;;;;;;;5.70;1.20;;;;;;;28.36;37.42;100543.88;105144;1271;59657;-72
2022/07/03 06:23:28;;;;;;;5.40;1.20;;;;;;;28.30;35.88;100542.48;105201;1271;59677;-73
2022/07/03 06:26:32;;;;;;;6.40;1.20;;;;;;;28.40;34.56;100540.98;105243;1271;71708;-72
2022/07/03 06:29:19;;;;;;;6.70;1.10;;;;;;;28.49;34.33;100531.67;105435;1271;67822;-72
2022/07/03 06:32:07;;;;;;;6.90;1.50;;;;;;;28.57;33.92;100540.63;104981;1271;71108;-72
2022/07/03 06:34:56;;;;;;;5.10;1.10;;;;;;;28.70;34.50;100537.59;104902;1271;59970;-70
2022/07/03 06:37:44;;;;;;;5.40;1.30;;;;;;;28.95;34.60;100535.30;104837;1272;62107;-74
2022/07/03 06:40:32;;;;;;;6.10;1.40;;;;;;;29.31;34.45;100534.46;105176;1271;72143;-71
2022/07/03 06:43:19;;;;;;;5.60;1.20;;;;;;;29.79;33.38;100531.16;105151;1271;70178;-71
2022/07/03 06:46:07;;;;;;;4.60;0.80;;;;;;;29.94;31.44;100534.20;104990;1271;72386;-71
2022/07/03 06:48:55;;;;;;;5.40;1.10;;;;;;;30.07;31.33;100536.25;104814;1274;59769;-72
2022/07/03 06:51:43;;;;;;;5.50;1.00;;;;;;;30.31;31.23;100533.37;105035;1271;61349;-73
2022/07/03 06:54:31;;;;;;;8.30;2.40;;;;;;;30.56;30.54;100525.23;105139;1271;74766;-72
2022/07/03 06:57:21;;;;;;;5.60;1.30;;;;;;;30.74;29.73;100525.33;105139;1271;68988;-71
2022/07/03 07:00:11;;;;;;;4.90;1.00;;;;;;;30.84;29.36;100526.48;105111;1271;73299;-73
2022/07/03 07:02:58;;;;;;;5.50;1.60;;;;;;;31.15;30.34;100520.85;105012;1271;59867;-73
2022/07/03 07:05:47;;;;;;;6.80;1.80;;;;;;;31.66;29.43;100522.08;105406;1271;61415;-74
2022/07/03 07:08:35;;;;;;;6.10;1.20;;;;;;;31.65;28.64;100524.27;105148;1271;74893;-74
2022/07/03 07:11:24;;;;;;;5.80;1.00;;;;;;;31.81;28.52;100522.10;105177;1271;68229;-73
2022/07/03 07:14:11;;;;;;;8.00;1.30;;;;;;;32.09;28.19;100523.77;105242;1271;72402;-74
2022/07/03 07:17:00;;;;;;;5.20;1.00;;;;;;;32.56;27.09;100518.41;105181;1271;59639;-74
2022/07/03 07:19:48;;;;;;;5.50;1.20;;;;;;;32.98;27.06;100504.80;105317;1271;59660;-74
2022/07/03 07:22:35;;;;;;;6.70;1.00;;;;;;;32.86;26.31;100508.34;105118;1271;71935;-72
2022/07/03 07:25:23;;;;;;;7.10;1.60;;;;;;;32.93;26.81;100508.32;104963;1271;68289;-71
2022/07/03 07:28:11;;;;;;;4.60;1.00;;;;;;;33.51;26.47;100502.61;104983;1271;73866;-71
2022/07/03 07:30:59;;;;;;;5.50;1.00;;;;;;;33.98;25.28;100503.56;105144;1271;59752;-71
2022/07/03 07:33:47;;;;;;;4.60;0.90;;;;;;;34.13;24.62;100504.55;105209;1271;59653;-71
2022/07/03 07:36:34;;;;;;;5.80;0.90;;;;;;;33.66;24.82;100503.35;105190;1271;74154;-66
2022/07/03 07:39:22;;;;;;;7.20;3.00;;;;;;;33.79;25.08;100502.04;105198;1271;66765;-71
2022/07/03 07:42:10;;;;;;;4.90;1.00;;;;;;;34.21;24.42;100503.01;104830;1271;73449;-72
2022/07/03 07:44:58;;;;;;;5.50;0.80;;;;;;;33.99;23.03;100504.95;105692;1271;59739;-70
2022/07/03 07:47:46;;;;;;;4.50;0.80;;;;;;;33.69;23.66;100500.46;105051;1274;62051;-71
2022/07/03 07:50:34;;;;;;;5.40;0.90;;;;;;;33.77;23.07;100498.89;105057;1271;74128;-71
2022/07/03 07:53:22;;;;;;;5.20;0.90;;;;;;;33.85;23.90;100501.92;105251;1271;68572;-70
2022/07/03 07:56:10;;;;;;;7.10;2.10;;;;;;;34.02;23.81;100502.00;105000;1271;74391;-71
2022/07/03 07:58:58;;;;;;;4.90;1.00;;;;;;;34.02;23.98;100499.63;105039;1271;59735;-70
2022/07/03 08:07:59;;;;;;;7.00;1.00;;;;;;;35.15;23.21;100487.75;105191;1271;69096;-69
2022/07/03 08:10:51;;;;;;;6.30;1.20;;;;;;;35.51;22.80;100483.77;105016;1271;72006;-70
2022/07/03 08:13:39;;;;;;;5.90;1.60;;;;;;;35.85;22.52;100483.66;104886;1271;59753;-70
2022/07/03 08:16:29;;;;;;;5.00;0.90;;;;;;;36.21;21.89;100481.73;104731;1271;62140;-69
2022/07/03 08:19:18;;;;;;;4.20;0.80;;;;;;;36.45;21.51;100483.63;105120;1271;74560;-70
2022/07/03 08:22:06;;;;;;;5.70;1.00;;;;;;;36.54;21.63;100479.26;105007;1271;69998;-71
2022/07/03 08:24:54;;;;;;;5.30;0.90;;;;;;;36.90;20.93;100471.95;104975;1271;73226;-71
2022/07/03 08:27:42;;;;;;;4.80;0.90;;;;;;;36.40;20.92;100472.65;104930;1271;59587;-70
2022/07/03 08:30:31;;;;;;;5.40;0.90;;;;;;;35.42;21.56;100466.16;104931;1271;59650;-71
2022/07/03 08:33:18;;;;;;;4.80;0.80;;;;;;;34.50;23.06;100466.95;104961;1271;72582;-73
2022/07/03 08:36:06;;;;;;;5.40;0.90;;;;;;;34.42;23.38;100466.14;104920;1271;68427;-70
2022/07/03 08:38:54;;;;;;;5.60;1.00;;;;;;;34.94;22.90;100467.23;104962;1271;72600;-72
2022/07/03 08:41:43;;;;;;;6.00;1.20;;;;;;;35.19;22.58;100464.52;104979;1271;59719;-72
2022/07/03 08:44:32;;;;;;;7.40;1.20;;;;;;;35.71;22.21;100463.73;104951;1271;60253;-72
2022/07/03 08:47:21;;;;;;;6.80;1.10;;;;;;;35.91;21.83;100465.45;104778;1273;74556;-73
2022/07/03 08:50:14;;;;;;;5.80;0.90;;;;;;;36.03;21.21;100466.27;104829;1271;69786;-73
2022/07/03 08:53:03;;;;;;;7.40;3.60;;;;;;;36.21;21.16;100462.84;104910;1271;73154;-71
2022/07/03 08:55:52;;;;;;;9.30;5.30;;;;;;;36.47;21.30;100458.13;105030;1271;59889;-75
2022/07/03 08:58:40;;;;;;;5.20;1.40;;;;;;;36.73;20.92;100457.77;104915;1271;60845;-73
2022/07/03 09:01:28;;;;;;;5.20;0.90;;;;;;;36.59;19.64;100456.67;104982;1271;73919;-74
2022/07/03 09:04:16;;;;;;;5.30;1.20;;;;;;;36.45;20.40;100453.31;104923;1271;69593;-74
2022/07/03 09:07:06;;;;;;;4.90;0.90;;;;;;;36.79;20.29;100447.23;105228;1271;73474;-75
2022/07/03 09:09:54;;;;;;;8.20;1.60;;;;;;;36.68;20.74;100446.33;104865;1271;59650;-75
2022/07/03 09:12:44;;;;;;;4.30;0.90;;;;;;;36.71;20.74;100444.05;104850;1271;62323;-73
2022/07/03 09:15:32;;;;;;;5.10;1.10;;;;;;;35.54;21.71;100446.52;104939;1271;74681;-73
2022/07/03 09:18:41;;;;;;;6.30;1.10;;;;;;;34.84;23.02;100440.94;105043;1271;68655;-70
2022/07/03 09:21:39;;;;;;;7.80;1.30;;;;;;;35.06;23.23;100439.67;105186;1271;73203;-71
2022/07/03 09:24:32;;;;;;;6.00;1.10;;;;;;;35.40;22.82;100437.39;104759;1274;59768;-71
2022/07/03 09:27:23;;;;;;;5.70;1.40;;;;;;;35.46;22.77;100435.41;104864;1271;59674;-71
2022/07/03 09:30:11;;;;;;;5.60;1.20;;;;;;;35.61;22.71;100435.40;104920;1271;74906;-72
2022/07/03 09:32:59;;;;;;;7.00;1.20;;;;;;;35.91;22.88;100434.11;104876;1271;68039;-71
2022/07/03 09:35:53;;;;;;;5.90;1.00;;;;;;;35.80;22.41;100432.02;104880;1271;73221;-74
2022/07/03 09:38:45;;;;;;;6.20;1.30;;;;;;;35.97;22.91;100427.73;105064;1271;59768;-72
2022/07/03 09:42:11;;;;;;;7.50;2.60;;;;;;;36.14;22.53;100425.98;105106;1271;60422;-72
2022/07/03 09:44:58;;;;;;;6.10;1.70;;;;;;;36.20;22.27;100423.50;105218;1271;72169;-72
2022/07/03 09:47:46;;;;;;;7.00;1.90;;;;;;;36.39;22.35;100413.38;104811;1271;68424;-72
2022/07/03 09:50:44;;;;;;;6.00;1.00;;;;;;;36.39;21.68;100414.91;104903;1271;71795;-72
2022/07/03 09:53:43;;;;;;;6.00;1.40;;;;;;;36.33;21.69;100409.02;104881;1271;59859;-73
2022/07/03 09:56:38;;;;;;;7.00;1.90;;;;;;;36.26;21.13;100412.08;105171;1271;60255;-73
2022/07/03 09:59:26;;;;;;;6.20;1.60;;;;;;;35.97;21.75;100414.11;104753;1271;73741;-73
2022/07/03 10:02:14;;;;;;;6.30;1.30;;;;;;;35.97;22.10;100413.27;104879;1271;66464;-74
2022/07/03 10:05:12;;;;;;;8.00;1.70;;;;;;;36.19;21.83;100405.28;104889;1271;73699;-74
2022/07/03 10:08:07;;;;;;;7.60;1.80;;;;;;;36.19;21.33;100401.25;104987;1271;59668;-74
2022/07/03 10:10:54;;;;;;;6.40;1.70;;;;;;;36.20;21.18;100398.70;104791;1271;59518;-73
2022/07/03 10:13:42;;;;;;;5.20;1.30;;;;;;;36.30;21.34;100391.14;104733;1271;74778;-73
2022/07/03 10:16:30;;;;;;;5.90;1.70;;;;;;;36.43;21.33;100387.77;104720;1271;69556;-73
2022/07/03 10:19:28;;;;;;;6.80;1.10;;;;;;;36.56;20.89;100382.43;104722;1272;73474;-71
2022/07/03 10:22:22;;;;;;;5.30;1.00;;;;;;;36.63;20.73;100380.23;105277;1271;59702;-71
2022/07/03 10:25:11;;;;;;;5.80;1.00;;;;;;;36.74;21.01;100382.92;104864;1271;60794;-72
2022/07/03 10:28:00;;;;;;;5.80;1.20;;;;;;;36.98;20.73;100374.20;104951;1274;73784;-69
2022/07/03 10:30:49;;;;;;;4.70;1.00;;;;;;;37.11;20.26;100376.09;104868;1271;69534;-72
2022/07/03 10:33:38;;;;;;;4.90;0.80;;;;;;;37.33;20.30;100376.05;104781;1271;73208;-71
2022/07/03 10:36:27;;;;;;;6.70;1.20;;;;;;;37.58;19.90;100374.25;104969;1271;59839;-72
2022/07/03 10:39:40;;;;;;;4.80;0.90;;;;;;;37.74;19.35;100370.70;104579;1274;62329;-72
2022/07/03 10:46:12;;;;;;;6.20;1.00;;;;;;;37.77;19.33;100364.84;104853;1271;69619;-72
2022/07/03 10:49:06;;;;;;;4.10;0.80;;;;;;;37.76;18.93;100366.13;104800;1271;73251;-74
2022/07/03 10:52:02;;;;;;;4.90;1.00;;;;;;;37.86;19.32;100362.55;105151;1271;59679;-72
2022/07/03 10:54:56;;;;;;;5.40;0.80;;;;;;;37.97;19.67;100359.45;104887;1271;62085;-71
2022/07/03 10:58:08;;;;;;;5.00;0.80;;;;;;;37.82;19.12;100361.75;104885;1271;73643;-71
2022/07/03 11:00:58;;;;;;;7.50;1.20;;;;;;;37.74;19.25;100362.48;105133;1271;66626;-71
2022/07/03 11:03:57;;;;;;;5.90;1.50;;;;;;;37.85;19.27;100363.22;104797;1271;73353;-73
2022/07/03 11:07:05;;;;;;;4.30;0.90;;;;;;;37.92;19.26;100357.64;104793;1271;59688;-71
2022/07/03 11:10:14;;;;;;;4.80;0.80;;;;;;;37.37;18.79;100353.02;104886;1271;60484;-69
2022/07/03 11:13:10;;;;;;;6.70;1.40;;;;;;;36.85;20.19;100356.52;104862;1271;73419;-69
2022/07/03 11:15:58;;;;;;;5.40;1.00;;;;;;;36.20;20.88;100350.39;104937;1271;69581;-72
2022/07/03 11:18:57;;;;;;;6.00;1.30;;;;;;;35.72;21.72;100356.24;104857;1274;73576;-69
2022/07/03 11:21:53;;;;;;;6.30;1.40;;;;;;;35.20;22.03;100353.70;104886;1271;59761;-66
2022/07/03 11:24:45;;;;;;;7.00;3.30;;;;;;;34.63;22.07;100348.47;104806;1271;61399;-69
2022/07/03 11:27:36;;;;;;;9.60;5.30;;;;;;;34.19;22.94;100348.70;104616;1271;73951;-71
2022/07/03 11:30:26;;;;;;;6.70;1.50;;;;;;;33.69;23.45;100349.54;104855;1271;69844;-70
2022/07/03 11:33:42;;;;;;;12.40;8.70;;;;;;;33.38;23.93;100349.65;104751;1271;74555;-66
2022/07/03 11:36:33;;;;;;;9.20;3.30;;;;;;;32.68;24.12;100340.95;105726;1271;59813;-71
2022/07/03 11:39:21;;;;;;;6.30;1.60;;;;;;;32.22;25.06;100340.11;104968;1272;59612;-71
2022/07/03 11:42:10;;;;;;;6.60;2.40;;;;;;;31.72;26.35;100346.02;104764;1271;71698;-71
2022/07/03 11:44:58;;;;;;;6.40;1.50;;;;;;;31.10;26.89;100347.79;104912;1274;67260;-69
2022/07/03 11:47:48;;;;;;;6.90;1.40;;;;;;;30.52;28.00;100346.29;104719;1274;71910;-70
2022/07/03 11:50:41;;;;;;;5.50;1.70;;;;;;;29.98;27.06;100340.13;104930;1274;59853;-69
2022/07/03 11:53:32;;;;;;;6.30;1.30;;;;;;;29.40;28.78;100334.14;105044;1271;60686;-72
2022/07/03 11:56:20;;;;;;;6.00;1.30;;;;;;;28.89;30.63;100338.23;104906;1271;72406;-70
2022/07/03 11:59:09;;;;;;;6.50;1.30;;;;;;;28.50;32.12;100338.80;104858;1271;68669;-70
2022/07/03 12:02:03;;;;;;;7.10;1.70;;;;;;;27.98;33.34;100337.63;104842;1271;74132;-70
2022/07/03 12:04:50;;;;;;;4.90;1.20;;;;;;;27.59;34.54;100335.46;104776;1271;59646;-71
2022/07/03 12:07:39;;;;;;;6.30;1.30;;;;;;;27.36;34.84;100332.58;105104;1271;60639;-67
2022/07/03 12:10:40;;;;;;;6.80;1.30;;;;;;;27.06;35.64;100335.80;105193;1271;73527;-70
2022/07/03 12:13:30;;;;;;;5.80;1.20;;;;;;;26.88;36.55;100333.54;105016;1271;66783;-71
2022/07/03 12:16:17;;;;;;;6.20;1.90;;;;;;;26.65;37.19;100332.78;104814;1272;73202;-70
2022/07/03 12:19:08;;;;;;;13.20;5.30;;;;;;;26.41;38.23;100331.26;104886;1271;59838;-71
2022/07/03 12:21:56;;;;;;;13.50;7.80;;;;;;;26.30;38.81;100323.80;104834;1271;59624;-70
2022/07/03 12:24:58;;;;;;;10.10;4.60;;;;;;;26.19;38.97;100325.61;104672;1271;72875;-67
2022/07/03 12:27:47;;;;;;;5.50;1.40;;;;;;;26.04;38.77;100325.66;104785;1271;69580;-67
2022/07/03 12:30:37;;;;;;;7.80;2.70;;;;;;;25.86;39.84;100324.27;104720;1271;72124;-65
2022/07/03 12:33:24;;;;;;;7.60;2.60;;;;;;;25.72;39.78;100317.50;104740;1271;59703;-68
2022/07/03 12:36:12;;;;;;;5.40;1.40;;;;;;;25.65;40.57;100317.73;104971;1271;60279;-69
2022/07/03 12:39:00;;;;;;;10.90;5.50;;;;;;;25.61;40.67;100318.08;104724;1271;73460;-69
2022/07/03 12:41:48;;;;;;;8.30;3.20;;;;;;;25.58;40.91;100311.41;104809;1271;67317;-69
2022/07/03 12:44:36;;;;;;;8.00;2.30;;;;;;;25.51;40.97;100308.61;104993;1274;72485;-68
2022/07/03 12:47:26;;;;;;;5.10;1.40;;;;;;;25.44;41.39;100312.45;105013;1274;59759;-69
2022/07/03 12:50:15;;;;;;;5.80;1.40;;;;;;;25.37;41.33;100302.69;104688;1274;60278;-68
2022/07/03 12:53:03;;;;;;;4.70;1.10;;;;;;;25.37;42.03;100300.16;104849;1274;72691;-68
2022/07/03 12:55:51;;;;;;;6.20;1.50;;;;;;;25.29;41.91;100300.58;104827;1274;69462;-69
2022/07/03 13:02:05;;;;;;;6.50;1.30;;;;;;;25.21;42.03;100302.63;105139;1273;59810;-69
2022/07/03 13:04:53;;;;;;;8.70;3.20;;;;;;;25.03;41.86;100302.79;105038;1274;60265;-70
2022/07/03 13:07:43;;;;;;;8.20;2.00;;;;;;;24.90;42.22;100301.91;105189;1273;71304;-70
2022/07/03 13:10:31;;;;;;;6.40;1.30;;;;;;;24.74;42.87;100300.30;104876;1274;67477;-66
2022/07/03 13:13:18;;;;;;;8.90;3.80;;;;;;;24.47;43.67;100298.35;104768;1274;72469;-66
2022/07/03 13:16:26;;;;;;;6.90;2.00;;;;;;;24.34;44.46;100300.83;104782;1273;59653;-69
2022/07/03 13:19:22;;;;;;;8.60;2.00;;;;;;;24.31;44.34;100297.05;104720;1273;60469;-69
2022/07/03 13:22:10;;;;;;;7.20;2.30;;;;;;;24.36;44.41;100294.32;104704;1273;73920;-68
2022/07/03 13:24:59;;;;;;;10.90;5.90;;;;;;;24.39;44.35;100292.39;104863;1274;69396;-70